createdAt,value
2023-03-08T00:00:25.340Z,983.65
2023-03-08T00:01:25.344Z,983.67
2023-03-08T00:02:25.480Z,983.72
2023-03-08T00:03:26.054Z,983.68
2023-03-08T00:04:25.515Z,983.74
2023-03-08T00:05:25.414Z,983.72
2023-03-08T00:06:25.490Z,983.71
2023-03-08T00:07:25.427Z,983.70
2023-03-08T00:08:25.360Z,983.66
2023-03-08T00:09:25.341Z,983.63
2023-03-08T00:10:25.970Z,983.61
2023-03-08T00:11:26.001Z,983.66
2023-03-08T00:12:25.238Z,983.66
2023-03-08T00:13:25.227Z,983.73
2023-03-08T00:14:25.284Z,983.67
2023-03-08T00:15:25.885Z,983.75
2023-03-08T00:16:25.988Z,983.73
2023-03-08T00:17:25.218Z,983.75
2023-03-08T00:18:25.285Z,983.76
2023-03-08T00:19:25.182Z,983.73
2023-03-08T00:20:25.203Z,983.82
2023-03-08T00:21:25.206Z,983.75
2023-03-08T00:22:25.212Z,983.77
2023-03-08T00:23:25.284Z,983.78
2023-03-08T00:24:26.174Z,983.87
2023-03-08T00:25:25.223Z,983.82
2023-03-08T00:26:25.826Z,983.87
2023-03-08T00:27:26.069Z,983.84
2023-03-08T00:28:25.137Z,983.80
2023-03-08T00:29:25.284Z,983.81
2023-03-08T00:30:25.101Z,983.83
2023-03-08T00:31:25.313Z,983.86
2023-03-08T00:32:25.252Z,983.83
2023-03-08T00:33:25.375Z,983.83
2023-03-08T00:34:25.289Z,983.85
2023-03-08T00:35:26.823Z,983.88
2023-03-08T00:36:25.308Z,983.92
2023-03-08T00:37:25.112Z,983.92
2023-03-08T00:38:25.210Z,983.81
2023-03-08T00:39:25.174Z,983.78
2023-03-08T00:40:25.054Z,983.81
2023-03-08T00:41:25.014Z,983.80
2023-03-08T00:42:25.040Z,983.85
2023-03-08T00:43:25.662Z,983.83
2023-03-08T00:44:25.085Z,983.84
2023-03-08T00:45:26.001Z,983.81
2023-03-08T00:46:25.330Z,983.78
2023-03-08T00:47:25.142Z,983.92
2023-03-08T00:48:25.902Z,983.88
2023-03-08T00:49:25.906Z,983.92
2023-03-08T00:50:25.130Z,983.86
2023-03-08T00:51:25.770Z,983.88
2023-03-08T00:52:25.688Z,983.91
2023-03-08T00:53:24.930Z,983.91
2023-03-08T00:54:25.919Z,983.98
2023-03-08T00:55:25.988Z,983.82
2023-03-08T00:56:24.893Z,983.90
2023-03-08T00:57:25.395Z,983.87
2023-03-08T00:58:24.962Z,983.86
2023-03-08T00:59:24.975Z,983.86
2023-03-08T01:00:24.973Z,983.85
2023-03-08T01:01:25.661Z,983.98
2023-03-08T01:02:25.693Z,983.91
2023-03-08T01:03:24.928Z,983.95
2023-03-08T01:04:25.343Z,983.92
2023-03-08T01:05:24.961Z,983.93
2023-03-08T01:06:25.508Z,983.94
2023-03-08T01:07:25.459Z,983.94
2023-03-08T01:08:25.708Z,983.88
2023-03-08T01:09:24.951Z,984.01
2023-03-08T01:10:25.425Z,983.93
2023-03-08T01:11:24.816Z,983.90
2023-03-08T01:12:24.930Z,983.94
2023-03-08T01:13:24.834Z,983.89
2023-03-08T01:14:24.829Z,983.93
2023-03-08T01:15:25.545Z,983.87
2023-03-08T01:16:26.121Z,983.92
2023-03-08T01:17:24.888Z,983.92
2023-03-08T01:18:25.003Z,983.93
2023-03-08T01:19:24.830Z,983.90
2023-03-08T01:20:25.418Z,983.91
2023-03-08T01:21:57.199Z,983.90
2023-03-08T01:22:24.690Z,983.87
2023-03-08T01:23:25.654Z,983.79
2023-03-08T01:24:24.862Z,983.85
2023-03-08T01:25:24.676Z,983.89
2023-03-08T01:26:24.700Z,983.84
2023-03-08T01:27:24.653Z,983.86
2023-03-08T01:28:24.656Z,983.83
2023-03-08T01:29:24.704Z,983.80
2023-03-08T01:30:24.671Z,983.79
2023-03-08T01:31:24.674Z,983.83
2023-03-08T01:32:24.783Z,983.74
2023-03-08T01:33:24.610Z,983.74
2023-03-08T01:34:24.623Z,983.73
2023-03-08T01:35:24.751Z,983.70
2023-03-08T01:36:24.574Z,983.73
2023-03-08T01:37:24.650Z,983.70
2023-03-08T01:38:24.653Z,983.68
2023-03-08T01:39:24.588Z,983.73
2023-03-08T01:40:25.484Z,983.62
2023-03-08T01:41:25.530Z,983.67
2023-03-08T01:42:24.586Z,983.62
2023-03-08T01:43:24.601Z,983.61
2023-03-08T01:44:24.526Z,983.60
2023-03-08T01:45:24.503Z,983.60
2023-03-08T01:46:24.524Z,983.67
2023-03-08T01:47:24.504Z,983.59
2023-03-08T01:48:24.683Z,983.62
2023-03-08T01:49:24.511Z,983.72
2023-03-08T01:50:25.437Z,983.72
2023-03-08T01:51:24.543Z,983.73
2023-03-08T01:52:24.532Z,983.70
2023-03-08T01:53:24.496Z,983.70
2023-03-08T01:54:24.488Z,983.65
2023-03-08T01:55:24.460Z,983.59
2023-03-08T01:56:24.466Z,983.55
2023-03-08T01:57:24.466Z,983.64
2023-03-08T01:58:24.425Z,983.64
2023-03-08T01:59:24.468Z,983.55
2023-03-08T02:00:24.430Z,983.60
2023-03-08T02:01:24.554Z,983.57
2023-03-08T02:02:24.976Z,983.58
2023-03-08T02:03:24.420Z,983.55
2023-03-08T02:04:24.401Z,983.58
2023-03-08T02:05:24.545Z,983.58
2023-03-08T02:06:24.403Z,983.52
2023-03-08T02:07:24.433Z,983.51
2023-03-08T02:08:24.432Z,983.55
2023-03-08T02:09:24.364Z,983.52
2023-03-08T02:10:24.374Z,983.52
2023-03-08T02:11:25.445Z,983.55
2023-03-08T02:12:24.366Z,983.52
2023-03-08T02:13:24.376Z,983.57
2023-03-08T02:14:24.430Z,983.57
2023-03-08T02:15:24.375Z,983.59
2023-03-08T02:16:24.317Z,983.61
2023-03-08T02:17:24.310Z,983.61
2023-03-08T02:18:24.301Z,983.61
2023-03-08T02:19:24.321Z,983.54
2023-03-08T02:20:24.345Z,983.50
2023-03-08T02:21:24.416Z,983.52
2023-03-08T02:22:24.313Z,983.57
2023-03-08T02:23:24.243Z,983.55
2023-03-08T02:24:24.240Z,983.47
2023-03-08T02:25:24.245Z,983.45
2023-03-08T02:26:24.770Z,983.50
2023-03-08T02:27:24.254Z,983.48
2023-03-08T02:28:24.277Z,983.45
2023-03-08T02:29:24.267Z,983.44
2023-03-08T02:30:24.199Z,983.36
2023-03-08T02:31:24.272Z,983.38
2023-03-08T02:32:24.353Z,983.42
2023-03-08T02:33:24.205Z,983.41
2023-03-08T02:34:24.991Z,983.45
2023-03-08T02:35:24.216Z,983.44
2023-03-08T02:36:24.313Z,983.35
2023-03-08T02:37:24.165Z,983.38
2023-03-08T02:38:24.945Z,983.44
2023-03-08T02:39:24.154Z,983.41
2023-03-08T02:40:24.158Z,983.47
2023-03-08T02:41:24.132Z,983.46
2023-03-08T02:42:24.112Z,983.52
2023-03-08T02:43:24.186Z,983.48
2023-03-08T02:44:24.184Z,983.39
2023-03-08T02:45:24.106Z,983.43
2023-03-08T02:46:24.878Z,983.43
2023-03-08T02:47:24.105Z,983.44
2023-03-08T02:48:24.066Z,983.39
2023-03-08T02:49:24.124Z,983.44
2023-03-08T02:50:24.041Z,983.40
2023-03-08T02:51:24.082Z,983.38
2023-03-08T02:52:24.050Z,983.34
2023-03-08T02:53:24.063Z,983.32
2023-03-08T02:54:24.049Z,983.34
2023-03-08T02:55:24.065Z,983.34
2023-03-08T02:56:24.071Z,983.40
2023-03-08T02:57:24.037Z,983.40
2023-03-08T02:58:24.918Z,983.35
2023-03-08T02:59:24.170Z,983.36
2023-03-08T03:00:24.989Z,983.34
2023-03-08T03:01:24.064Z,983.36
2023-03-08T03:02:23.950Z,983.32
2023-03-08T03:03:23.931Z,983.26
2023-03-08T03:04:23.962Z,983.28
2023-03-08T03:05:23.939Z,983.28
2023-03-08T03:06:24.031Z,983.23
2023-03-08T03:07:23.990Z,983.29
2023-03-08T03:08:23.941Z,983.31
2023-03-08T03:09:23.901Z,983.24
2023-03-08T03:10:24.002Z,983.22
2023-03-08T03:11:23.875Z,983.21
2023-03-08T03:12:23.869Z,983.21
2023-03-08T03:13:24.856Z,983.19
2023-03-08T03:14:23.959Z,983.19
2023-03-08T03:15:24.482Z,983.15
2023-03-08T03:16:24.101Z,983.11
2023-03-08T03:17:23.836Z,983.11
2023-03-08T03:18:23.843Z,983.19
2023-03-08T03:19:23.895Z,983.17
2023-03-08T03:20:23.845Z,983.12
2023-03-08T03:21:23.878Z,983.13
2023-03-08T03:22:23.789Z,983.17
2023-03-08T03:23:23.787Z,983.15
2023-03-08T03:24:23.778Z,983.18
2023-03-08T03:25:23.768Z,983.14
2023-03-08T03:26:23.849Z,983.14
2023-03-08T03:27:23.816Z,983.16
2023-03-08T03:28:23.811Z,983.11
2023-03-08T03:29:23.756Z,983.16
2023-03-08T03:30:23.752Z,983.13
2023-03-08T03:31:23.756Z,983.10
2023-03-08T03:32:23.784Z,983.06
2023-03-08T03:33:23.712Z,983.10
2023-03-08T03:34:23.753Z,983.07
2023-03-08T03:35:23.782Z,983.14
2023-03-08T03:36:23.690Z,983.06
2023-03-08T03:37:23.732Z,983.14
2023-03-08T03:38:23.702Z,983.14
2023-03-08T03:39:23.713Z,983.16
2023-03-08T03:40:23.686Z,983.12
2023-03-08T03:41:23.673Z,983.07
2023-03-08T03:42:23.616Z,983.11
2023-03-08T03:43:23.676Z,983.17
2023-03-08T03:44:23.718Z,983.18
2023-03-08T03:45:23.655Z,983.16
2023-03-08T03:46:24.653Z,983.13
2023-03-08T04:02:37.640Z,983.45
2023-03-08T04:03:37.566Z,983.50
2023-03-08T04:04:38.685Z,983.44
2023-03-08T04:05:38.725Z,983.48
2023-03-08T04:06:38.659Z,983.45
2023-03-08T04:07:38.690Z,983.39
2023-03-08T04:08:38.696Z,983.44
2023-03-08T04:09:38.618Z,983.45
2023-03-08T04:10:39.636Z,983.47
2023-03-08T04:11:38.672Z,983.41
2023-03-08T04:12:38.625Z,983.45
2023-03-08T04:13:38.611Z,983.30
2023-03-08T04:14:38.630Z,983.29
2023-03-08T04:15:38.602Z,983.28
2023-03-08T04:16:38.609Z,983.26
2023-03-08T04:17:38.652Z,983.25
2023-03-08T04:18:39.557Z,983.28
2023-03-08T04:19:38.555Z,983.21
2023-03-08T04:20:38.581Z,983.27
2023-03-08T04:21:38.598Z,983.20
2023-03-08T04:22:38.595Z,983.22
2023-03-08T04:23:38.569Z,983.08
2023-03-08T04:24:38.646Z,983.14
2023-03-08T04:25:38.507Z,983.14
2023-03-08T04:26:39.567Z,983.18
2023-03-08T04:27:38.554Z,983.17
2023-03-08T04:28:38.522Z,983.14
2023-03-08T04:29:38.492Z,983.19
2023-03-08T04:30:38.520Z,983.15
2023-03-08T04:31:39.566Z,983.05
2023-03-08T04:33:10.408Z,983.06
2023-03-08T04:33:38.450Z,983.04
2023-03-08T04:34:38.554Z,983.06
2023-03-08T04:35:38.457Z,982.95
2023-03-08T04:36:38.418Z,982.92
2023-03-08T04:37:39.091Z,982.89
2023-03-08T04:38:38.449Z,982.92
2023-03-08T04:39:38.422Z,982.93
2023-03-08T04:40:38.400Z,982.87
2023-03-08T04:41:38.407Z,982.91
2023-03-08T04:43:10.307Z,982.85
2023-03-08T04:43:38.391Z,982.83
2023-03-08T04:44:38.391Z,982.88
2023-03-08T04:45:38.387Z,982.84
2023-03-08T04:46:38.423Z,982.83
2023-03-08T04:47:39.161Z,982.93
2023-03-08T04:48:38.356Z,982.92
2023-03-08T04:49:38.324Z,982.85
2023-03-08T04:50:38.315Z,982.90
2023-03-08T04:51:38.338Z,982.88
2023-03-08T04:52:38.302Z,982.85
2023-03-08T04:53:38.318Z,982.87
2023-03-08T04:54:38.285Z,982.91
2023-03-08T04:55:38.278Z,982.93
2023-03-08T04:56:38.321Z,982.95
2023-03-08T04:57:38.273Z,982.97
2023-03-08T04:58:38.300Z,982.88
2023-03-08T04:59:38.276Z,982.94
2023-03-08T05:00:39.141Z,982.90
2023-03-08T05:01:38.284Z,982.91
2023-03-08T05:02:39.167Z,982.86
2023-03-08T05:03:38.242Z,982.82
2023-03-08T05:04:38.282Z,982.90
2023-03-08T05:05:38.232Z,982.87
2023-03-08T05:06:38.252Z,982.84
2023-03-08T05:07:38.205Z,982.77
2023-03-08T05:08:38.208Z,982.75
2023-03-08T05:09:38.218Z,982.73
2023-03-08T05:10:38.203Z,982.71
2023-03-08T05:11:38.174Z,982.75
2023-03-08T05:12:38.169Z,982.70
2023-03-08T05:13:38.160Z,982.72
2023-03-08T05:14:38.132Z,982.71
2023-03-08T05:15:38.315Z,982.70
2023-03-08T05:16:38.173Z,982.65
2023-03-08T05:17:38.125Z,982.60
2023-03-08T05:18:38.113Z,982.59
2023-03-08T05:19:38.118Z,982.61
2023-03-08T05:20:38.120Z,982.59
2023-03-08T05:21:38.118Z,982.63
2023-03-08T05:22:55.000Z,982.63
2023-03-08T05:23:40.067Z,982.62
2023-03-08T05:24:39.005Z,982.68
2023-03-08T05:25:38.717Z,982.63
2023-03-08T05:26:38.053Z,982.61
2023-03-08T05:27:38.038Z,982.62
2023-03-08T05:28:38.043Z,982.57
2023-03-08T05:29:38.033Z,982.52
2023-03-08T05:30:38.026Z,982.53
2023-03-08T05:31:38.068Z,982.51
2023-03-08T05:32:38.059Z,982.57
2023-03-08T05:33:38.002Z,982.58
2023-03-08T05:34:38.029Z,982.51
2023-03-08T05:35:38.047Z,982.53
2023-03-08T05:36:37.991Z,982.61
2023-03-08T05:37:37.985Z,982.53
2023-03-08T05:38:38.017Z,982.44
2023-03-08T05:39:37.956Z,982.52
2023-03-08T05:40:37.945Z,982.48
2023-03-08T05:41:38.920Z,982.44
2023-03-08T05:42:37.965Z,982.40
2023-03-08T05:43:37.924Z,982.42
2023-03-08T05:44:37.936Z,982.39
2023-03-08T05:45:38.092Z,982.40
2023-03-08T05:46:37.911Z,982.46
2023-03-08T05:47:37.903Z,982.43
2023-03-08T05:48:37.904Z,982.40
2023-03-08T05:49:37.900Z,982.49
2023-03-08T05:50:37.855Z,982.44
2023-03-08T05:51:37.854Z,982.44
2023-03-08T05:52:37.863Z,982.30
2023-03-08T05:53:37.864Z,982.36
2023-03-08T05:54:37.815Z,982.32
2023-03-08T05:55:38.839Z,982.35
2023-03-08T05:56:37.844Z,982.39
2023-03-08T05:57:37.802Z,982.35
2023-03-08T05:58:40.490Z,982.36
2023-03-08T05:59:37.786Z,982.35
2023-03-08T06:00:37.802Z,982.35
2023-03-08T06:01:37.789Z,982.33
2023-03-08T06:02:37.759Z,982.33
2023-03-08T06:03:37.792Z,982.29
2023-03-08T06:04:37.770Z,982.34
2023-03-08T06:05:37.769Z,982.37
2023-03-08T06:06:37.738Z,982.25
2023-03-08T06:07:37.714Z,982.28
2023-03-08T06:08:37.730Z,982.25
2023-03-08T06:09:37.739Z,982.26
2023-03-08T06:10:37.720Z,982.18
2023-03-08T06:11:37.779Z,982.18
2023-03-08T06:12:37.702Z,982.18
2023-03-08T06:13:37.678Z,982.09
2023-03-08T06:14:37.712Z,982.13
2023-03-08T06:15:37.696Z,982.09
2023-03-08T06:16:37.766Z,982.09
2023-03-08T06:17:37.643Z,982.04
2023-03-08T06:18:37.663Z,982.05
2023-03-08T06:19:37.662Z,982.03
2023-03-08T06:20:37.664Z,982.02
2023-03-08T06:21:37.631Z,981.99
2023-03-08T06:22:37.679Z,982.00
2023-03-08T06:23:37.610Z,982.05
2023-03-08T06:24:37.585Z,982.02
2023-03-08T06:25:37.606Z,982.03
2023-03-08T06:26:37.653Z,982.02
2023-03-08T06:27:37.606Z,981.99
2023-03-08T06:28:37.560Z,981.98
2023-03-08T06:29:37.562Z,981.97
2023-03-08T06:30:37.654Z,981.96
2023-03-08T06:31:37.549Z,981.95
2023-03-08T06:32:37.780Z,981.96
2023-03-08T06:33:37.605Z,981.92
2023-03-08T06:34:37.525Z,981.89
2023-03-08T06:35:37.545Z,981.90
2023-03-08T06:36:37.554Z,981.95
2023-03-08T06:37:37.553Z,981.91
2023-03-08T06:38:37.501Z,981.93
2023-03-08T06:39:37.492Z,981.92
2023-03-08T06:40:38.516Z,981.86
2023-03-08T06:41:37.584Z,981.86
2023-03-08T06:42:41.641Z,981.87
2023-03-08T06:43:38.496Z,981.87
2023-03-08T06:44:39.648Z,981.86
2023-03-08T06:45:38.479Z,981.81
2023-03-08T06:46:37.488Z,981.82
2023-03-08T06:47:37.643Z,981.75
2023-03-08T06:48:37.432Z,981.73
2023-03-08T06:49:38.114Z,981.76
2023-03-08T06:50:37.424Z,981.74
2023-03-08T06:51:37.436Z,981.78
2023-03-08T06:52:37.545Z,981.80
2023-03-08T06:53:37.418Z,981.82
2023-03-08T06:54:37.454Z,981.82
2023-03-08T06:55:37.424Z,981.80
2023-03-08T06:56:37.382Z,981.81
2023-03-08T06:57:37.387Z,981.72
2023-03-08T06:58:37.413Z,981.80
2023-03-08T06:59:37.401Z,981.74
2023-03-08T07:00:37.362Z,981.77
2023-03-08T07:01:37.385Z,981.70
2023-03-08T07:02:37.363Z,981.70
2023-03-08T07:03:37.426Z,981.69
2023-03-08T07:04:37.395Z,981.64
2023-03-08T07:05:37.401Z,981.59
2023-03-08T07:06:37.298Z,981.60
2023-03-08T07:07:37.302Z,981.60
2023-03-08T07:08:37.289Z,981.60
2023-03-08T07:09:37.312Z,981.61
2023-03-08T07:10:37.281Z,981.60
2023-03-08T07:11:38.086Z,981.58
2023-03-08T07:12:37.247Z,981.57
2023-03-08T07:13:37.226Z,981.57
2023-03-08T07:14:37.256Z,981.48
2023-03-08T07:15:37.238Z,981.53
2023-03-08T07:16:37.278Z,981.50
2023-03-08T07:17:37.237Z,981.55
2023-03-08T07:18:37.197Z,981.46
2023-03-08T07:19:37.220Z,981.45
2023-03-08T07:20:37.180Z,981.49
2023-03-08T07:21:37.197Z,981.45
2023-03-08T07:22:37.165Z,981.44
2023-03-08T07:23:37.156Z,981.40
2023-03-08T07:24:37.182Z,981.44
2023-03-08T07:25:37.162Z,981.43
2023-03-08T07:26:37.125Z,981.44
2023-03-08T07:27:37.177Z,981.38
2023-03-08T07:28:37.162Z,981.41
2023-03-08T07:29:37.108Z,981.30
2023-03-08T07:30:37.181Z,981.24
2023-03-08T07:31:37.106Z,981.24
2023-03-08T07:32:37.201Z,981.26
2023-03-08T07:33:38.078Z,981.25
2023-03-08T07:34:37.085Z,981.13
2023-03-08T07:35:39.012Z,981.14
2023-03-08T07:36:37.094Z,981.15
2023-03-08T07:37:37.066Z,981.07
2023-03-08T07:38:37.059Z,981.09
2023-03-08T07:39:37.077Z,981.10
2023-03-08T07:40:37.172Z,981.09
2023-03-08T07:41:37.053Z,981.11
2023-03-08T07:42:37.063Z,981.07
2023-03-08T07:43:37.021Z,981.06
2023-03-08T07:44:37.052Z,981.00
2023-03-08T07:46:08.966Z,981.05
2023-03-08T07:46:37.071Z,981.04
2023-03-08T07:48:08.928Z,981.02
2023-03-08T07:48:37.002Z,981.01
2023-03-08T07:50:09.596Z,980.98
2023-03-08T07:50:36.998Z,980.99
2023-03-08T07:51:36.954Z,980.95
2023-03-08T07:52:36.962Z,980.89
2023-03-08T07:53:36.953Z,980.92
2023-03-08T07:54:36.933Z,980.88
2023-03-08T07:55:36.918Z,980.92
2023-03-08T07:56:36.913Z,980.87
2023-03-08T07:57:36.914Z,980.89
2023-03-08T07:58:36.893Z,980.81
2023-03-08T07:59:36.881Z,980.79
2023-03-08T08:00:36.875Z,980.80
2023-03-08T08:01:36.935Z,980.75
2023-03-08T08:02:36.892Z,980.73
2023-03-08T08:03:37.043Z,980.72
2023-03-08T08:04:36.844Z,980.72
2023-03-08T08:05:36.908Z,980.70
2023-03-08T08:06:36.834Z,980.66
2023-03-08T08:07:36.873Z,980.69
2023-03-08T08:08:36.845Z,980.65
2023-03-08T08:09:36.846Z,980.66
2023-03-08T08:11:09.623Z,980.64
2023-03-08T08:11:36.824Z,980.64
2023-03-08T08:12:36.815Z,980.64
2023-03-08T08:13:36.822Z,980.56
2023-03-08T08:14:36.826Z,980.60
2023-03-08T08:15:36.779Z,980.61
2023-03-08T08:16:36.816Z,980.66
2023-03-08T08:17:36.756Z,980.64
2023-03-08T08:18:36.901Z,980.58
2023-03-08T08:19:36.782Z,980.50
2023-03-08T08:20:36.763Z,980.43
2023-03-08T08:21:36.729Z,980.39
2023-03-08T08:22:36.768Z,980.40
2023-03-08T08:23:36.742Z,980.39
2023-03-08T08:24:36.752Z,980.32
2023-03-08T08:25:36.724Z,980.33
2023-03-08T08:26:36.671Z,980.29
2023-03-08T08:27:36.700Z,980.23
2023-03-08T08:28:36.700Z,980.24
2023-03-08T08:29:36.668Z,980.19
2023-03-08T08:30:36.665Z,980.27
2023-03-08T08:31:36.661Z,980.29
2023-03-08T08:32:36.702Z,980.27
2023-03-08T08:33:36.661Z,980.28
2023-03-08T08:34:36.637Z,980.23
2023-03-08T08:35:43.169Z,980.22
2023-03-08T08:36:38.649Z,980.19
2023-03-08T08:37:36.587Z,980.19
2023-03-08T08:38:36.618Z,980.10
2023-03-08T08:39:36.578Z,980.03
2023-03-08T08:40:36.560Z,980.04
2023-03-08T08:41:36.593Z,980.05
2023-03-08T08:42:36.595Z,980.07
2023-03-08T08:43:36.595Z,980.04
2023-03-08T08:44:36.524Z,979.95
2023-03-08T08:45:36.611Z,979.94
2023-03-08T08:46:36.601Z,979.92
2023-03-08T08:47:36.624Z,979.89
2023-03-08T08:48:36.512Z,979.89
2023-03-08T08:49:36.497Z,979.87
2023-03-08T08:50:36.505Z,979.87
2023-03-08T08:51:36.508Z,979.83
2023-03-08T08:52:36.615Z,979.90
2023-03-08T08:53:36.461Z,979.86
2023-03-08T08:54:36.573Z,979.81
2023-03-08T08:55:36.472Z,979.83
2023-03-08T08:56:36.487Z,979.81
2023-03-08T08:57:36.486Z,979.82
2023-03-08T08:58:36.420Z,979.79
2023-03-08T08:59:36.437Z,979.78
2023-03-08T09:00:36.445Z,979.75
2023-03-08T09:01:36.400Z,979.75
2023-03-08T09:02:36.513Z,979.73
2023-03-08T09:03:36.452Z,979.68
2023-03-08T09:04:36.529Z,979.71
2023-03-08T09:05:37.202Z,979.76
2023-03-08T09:06:36.365Z,979.73
2023-03-08T09:07:38.230Z,979.66
2023-03-08T09:08:37.354Z,979.61
2023-03-08T09:09:36.364Z,979.54
2023-03-08T09:10:37.227Z,979.59
2023-03-08T09:11:48.334Z,979.54
2023-03-08T09:12:38.483Z,979.46
2023-03-08T09:13:36.342Z,979.47
2023-03-08T09:14:36.361Z,979.51
2023-03-08T09:15:36.341Z,979.44
2023-03-08T09:16:36.319Z,979.42
2023-03-08T09:17:36.298Z,979.49
2023-03-08T09:18:36.276Z,979.43
2023-03-08T09:19:36.443Z,979.38
2023-03-08T09:20:36.323Z,979.40
2023-03-08T09:21:36.267Z,979.37
2023-03-08T09:22:36.281Z,979.30
2023-03-08T09:23:36.297Z,979.32
2023-03-08T09:24:36.292Z,979.31
2023-03-08T09:25:36.259Z,979.28
2023-03-08T09:26:36.254Z,979.27
2023-03-08T09:27:37.247Z,979.26
2023-03-08T09:28:36.269Z,979.26
2023-03-08T09:29:36.233Z,979.24
2023-03-08T09:30:36.257Z,979.25
2023-03-08T09:31:36.220Z,979.18
2023-03-08T09:32:36.271Z,979.18
2023-03-08T09:33:36.218Z,979.11
2023-03-08T09:34:36.198Z,979.17
2023-03-08T09:35:36.287Z,979.14
2023-03-08T09:36:36.183Z,979.16
2023-03-08T09:37:36.191Z,979.12
2023-03-08T09:38:36.178Z,979.03
2023-03-08T09:39:36.126Z,979.07
2023-03-08T09:40:36.209Z,979.05
2023-03-08T09:41:36.161Z,978.97
2023-03-08T09:42:36.120Z,978.97
2023-03-08T09:43:36.124Z,978.94
2023-03-08T09:44:36.104Z,978.82
2023-03-08T09:45:36.110Z,978.86
2023-03-08T09:46:36.124Z,978.87
2023-03-08T09:47:36.165Z,978.84
2023-03-08T09:48:36.138Z,978.82
2023-03-08T09:49:36.099Z,978.76
2023-03-08T09:50:36.117Z,978.74
2023-03-08T09:51:36.457Z,978.77
2023-03-08T09:52:36.069Z,978.73
2023-03-08T09:53:36.129Z,978.70
2023-03-08T09:54:36.061Z,978.70
2023-03-08T09:55:36.015Z,978.60
2023-03-08T09:56:36.035Z,978.59
2023-03-08T09:57:36.826Z,978.61
2023-03-08T09:58:36.039Z,978.59
2023-03-08T09:59:35.990Z,978.56
2023-03-08T10:00:36.087Z,978.48
2023-03-08T10:01:36.050Z,978.52
2023-03-08T10:02:36.012Z,978.48
2023-03-08T10:03:36.491Z,978.46
2023-03-08T10:04:37.014Z,978.44
2023-03-08T10:05:35.974Z,978.43
2023-03-08T10:06:35.939Z,978.36
2023-03-08T10:07:35.924Z,978.41
2023-03-08T10:08:35.920Z,978.37
2023-03-08T10:09:35.916Z,978.35
2023-03-08T10:10:35.904Z,978.37
2023-03-08T10:11:35.930Z,978.41
2023-03-08T10:12:35.884Z,978.39
2023-03-08T10:13:35.902Z,978.35
2023-03-08T10:14:35.916Z,978.29
2023-03-08T10:15:35.862Z,978.24
2023-03-08T10:16:35.985Z,978.24
2023-03-08T10:17:36.695Z,978.19
2023-03-08T10:18:35.908Z,978.18
2023-03-08T10:19:35.845Z,978.22
2023-03-08T10:20:35.851Z,978.24
2023-03-08T10:21:35.858Z,978.24
2023-03-08T10:22:35.802Z,978.21
2023-03-08T10:23:35.828Z,978.21
2023-03-08T10:24:35.824Z,978.17
2023-03-08T10:25:35.779Z,978.19
2023-03-08T10:26:35.802Z,978.16
2023-03-08T10:27:35.773Z,978.13
2023-03-08T10:28:35.803Z,978.10
2023-03-08T10:29:35.781Z,978.10
2023-03-08T10:30:35.805Z,978.09
2023-03-08T10:31:35.713Z,978.13
2023-03-08T10:32:36.598Z,978.08
2023-03-08T10:34:09.139Z,978.06
2023-03-08T10:34:36.775Z,978.02
2023-03-08T10:35:35.773Z,977.99
2023-03-08T10:36:35.772Z,978.03
2023-03-08T10:37:35.676Z,977.97
2023-03-08T10:38:35.798Z,978.00
2023-03-08T10:39:35.770Z,977.94
2023-03-08T10:40:35.711Z,978.00
2023-03-08T10:41:35.720Z,977.98
2023-03-08T10:42:35.726Z,977.99
2023-03-08T10:43:35.661Z,977.98
2023-03-08T10:44:35.635Z,977.97
2023-03-08T10:45:35.650Z,977.98
2023-03-08T10:46:35.670Z,977.96
2023-03-08T10:47:35.622Z,977.89
2023-03-08T10:48:35.638Z,977.87
2023-03-08T10:50:08.099Z,977.89
2023-03-08T10:50:35.614Z,977.87
2023-03-08T10:51:35.659Z,977.85
2023-03-08T10:52:35.623Z,977.85
2023-03-08T10:53:35.588Z,977.91
2023-03-08T10:54:35.570Z,977.87
2023-03-08T10:55:35.551Z,977.74
2023-03-08T10:56:35.625Z,977.87
2023-03-08T10:57:35.567Z,977.80
2023-03-08T10:58:35.563Z,977.85
2023-03-08T10:59:35.580Z,977.78
2023-03-08T11:00:35.541Z,977.78
2023-03-08T11:01:35.493Z,977.77
2023-03-08T11:02:35.577Z,977.72
2023-03-08T11:04:08.717Z,977.82
2023-03-08T11:04:35.538Z,977.78
2023-03-08T11:05:35.512Z,977.78
2023-03-08T11:06:35.486Z,977.79
2023-03-08T11:07:35.475Z,977.79
2023-03-08T11:08:35.480Z,977.77
2023-03-08T11:09:42.337Z,977.79
2023-03-08T11:10:35.760Z,977.78
2023-03-08T11:11:36.285Z,977.73
2023-03-08T11:12:36.033Z,977.73
2023-03-08T11:13:35.594Z,977.75
2023-03-08T11:14:35.582Z,977.74
2023-03-08T11:15:35.527Z,977.75
2023-03-08T11:20:01.145Z,977.76
2023-03-08T11:21:01.172Z,977.74
2023-03-08T11:22:01.297Z,977.73
2023-03-08T11:23:01.123Z,977.71
2023-03-08T11:24:01.173Z,977.68
2023-03-08T11:25:01.152Z,977.69
2023-03-08T11:26:01.117Z,977.67
2023-03-08T11:27:02.581Z,977.71
2023-03-08T11:28:02.315Z,977.68
2023-03-08T11:29:02.336Z,977.64
2023-03-08T11:30:02.316Z,977.68
2023-03-08T11:31:02.450Z,977.62
2023-03-08T11:32:02.321Z,977.56
2023-03-08T11:33:02.493Z,977.51
2023-03-08T11:34:02.466Z,977.53
2023-03-08T11:35:03.321Z,977.51
2023-03-08T11:36:02.263Z,977.47
2023-03-08T11:37:03.178Z,977.41
2023-03-08T11:38:02.314Z,977.41
2023-03-08T11:39:36.458Z,977.35
2023-03-08T11:40:03.693Z,977.33
2023-03-08T11:44:06.342Z,977.22
2023-03-08T11:47:46.950Z,977.20
2023-03-08T11:48:48.161Z,977.18
2023-03-08T11:49:48.114Z,977.23
2023-03-08T11:50:48.837Z,977.16
2023-03-08T11:51:48.023Z,977.23
2023-03-08T11:52:50.790Z,977.18
2023-03-08T11:53:51.427Z,977.22
2023-03-08T11:54:49.951Z,977.19
2023-03-08T11:55:50.759Z,977.15
2023-03-08T11:58:56.295Z,977.18
2023-03-08T12:07:59.841Z,977.25
2023-03-08T12:11:59.085Z,977.25
2023-03-08T12:13:07.662Z,977.21
2023-03-08T12:14:00.293Z,977.25
2023-03-08T12:15:01.246Z,977.24
2023-03-08T12:16:00.407Z,977.27
2023-03-08T12:17:00.401Z,977.29
2023-03-08T12:18:00.342Z,977.27
2023-03-08T12:19:01.088Z,977.22
2023-03-08T12:20:00.291Z,977.22
2023-03-08T12:21:00.223Z,977.24
2023-03-08T12:22:00.840Z,977.14
2023-03-08T12:23:00.271Z,977.12
2023-03-08T12:24:02.752Z,977.02
2023-03-08T12:25:00.188Z,977.02
2023-03-08T12:26:00.258Z,976.98
2023-03-08T12:27:00.171Z,976.91
2023-03-08T12:28:00.187Z,976.96
2023-03-08T12:29:00.174Z,976.96
2023-03-08T12:30:01.297Z,976.94
2023-03-08T12:31:00.170Z,976.97
2023-03-08T12:32:00.386Z,976.88
2023-03-08T12:33:00.386Z,976.89
2023-03-08T12:34:00.168Z,976.87
2023-03-08T12:35:00.115Z,976.85
2023-03-08T12:36:00.180Z,976.79
2023-03-08T12:37:00.126Z,976.81
2023-03-08T12:38:00.186Z,976.77
2023-03-08T12:39:00.146Z,976.79
2023-03-08T12:40:00.061Z,976.78
2023-03-08T12:41:32.732Z,976.76
2023-03-08T12:42:31.998Z,976.79
2023-03-08T12:43:00.033Z,976.79
2023-03-08T12:44:32.758Z,976.76
2023-03-08T12:45:33.852Z,976.78
2023-03-08T12:46:33.850Z,976.76
2023-03-08T12:47:32.438Z,976.70
2023-03-08T12:48:00.091Z,976.71
2023-03-08T12:49:34.489Z,976.73
2023-03-08T12:50:00.063Z,976.70
2023-03-08T12:51:00.459Z,976.71
2023-03-08T12:52:00.979Z,976.68
2023-03-08T12:52:59.965Z,976.74
2023-03-08T12:53:59.958Z,976.73
2023-03-08T12:55:32.030Z,976.74
2023-03-08T12:55:59.956Z,976.72
2023-03-08T12:56:59.943Z,976.64
2023-03-08T12:58:00.836Z,976.64
2023-03-08T12:59:00.841Z,976.65
2023-03-08T12:59:59.924Z,976.71
2023-03-08T13:00:59.950Z,976.71
2023-03-08T13:02:00.187Z,976.63
2023-03-08T13:02:59.934Z,976.56
2023-03-08T13:04:43.083Z,976.51
2023-03-08T13:05:00.887Z,976.48
2023-03-08T13:06:00.394Z,976.46